sensor_id;sensor_type;location;lat;lon;timestamp;temperature;humidity
72126;SHT31;59999;51.676;22.650;2023-07-20T00:01:24;14.31;80.58
72126;SHT31;59999;51.676;22.650;2023-07-20T00:03:50;14.31;80.45
72126;SHT31;59999;51.676;22.650;2023-07-20T00:06:24;14.20;80.48
72126;SHT31;59999;51.676;22.650;2023-07-20T00:08:51;14.14;80.55
72126;SHT31;59999;51.676;22.650;2023-07-20T00:11:17;14.09;80.71
72126;SHT31;59999;51.676;22.650;2023-07-20T00:13:43;14.14;80.29
72126;SHT31;59999;51.676;22.650;2023-07-20T00:16:09;14.18;80.42
72126;SHT31;59999;51.676;22.650;2023-07-20T00:18:35;14.18;80.52
72126;SHT31;59999;51.676;22.650;2023-07-20T00:21:01;14.24;80.64
72126;SHT31;59999;51.676;22.650;2023-07-20T00:23:28;14.28;80.29
72126;SHT31;59999;51.676;22.650;2023-07-20T00:25:54;14.35;80.06
72126;SHT31;59999;51.676;22.650;2023-07-20T00:28:20;14.40;80.20
72126;SHT31;59999;51.676;22.650;2023-07-20T00:30:46;14.37;80.14
72126;SHT31;59999;51.676;22.650;2023-07-20T00:33:12;14.38;79.60
72126;SHT31;59999;51.676;22.650;2023-07-20T00:35:39;14.40;79.15
72126;SHT31;59999;51.676;22.650;2023-07-20T00:38:05;14.35;79.43
72126;SHT31;59999;51.676;22.650;2023-07-20T00:40:38;14.26;79.51
72126;SHT31;59999;51.676;22.650;2023-07-20T00:43:04;14.16;79.69
72126;SHT31;59999;51.676;22.650;2023-07-20T00:45:30;14.06;80.13
72126;SHT31;59999;51.676;22.650;2023-07-20T00:47:57;14.00;80.59
72126;SHT31;59999;51.676;22.650;2023-07-20T00:50:24;14.00;80.08
72126;SHT31;59999;51.676;22.650;2023-07-20T00:52:51;14.02;79.73
72126;SHT31;59999;51.676;22.650;2023-07-20T00:55:19;14.03;79.42
72126;SHT31;59999;51.676;22.650;2023-07-20T00:57:45;14.05;79.18
72126;SHT31;59999;51.676;22.650;2023-07-20T01:00:12;14.00;79.24
72126;SHT31;59999;51.676;22.650;2023-07-20T01:02:38;13.96;79.32
72126;SHT31;59999;51.676;22.650;2023-07-20T01:05:05;13.96;79.07
72126;SHT31;59999;51.676;22.650;2023-07-20T01:07:36;13.97;79.08
72126;SHT31;59999;51.676;22.650;2023-07-20T01:10:10;13.97;79.13
72126;SHT31;59999;51.676;22.650;2023-07-20T01:12:47;14.00;79.16
72126;SHT31;59999;51.676;22.650;2023-07-20T01:15:13;13.90;79.19
72126;SHT31;59999;51.676;22.650;2023-07-20T01:17:39;13.85;79.40
72126;SHT31;59999;51.676;22.650;2023-07-20T01:20:10;13.76;79.74
72126;SHT31;59999;51.676;22.650;2023-07-20T01:25:42;13.66;80.24
72126;SHT31;59999;51.676;22.650;2023-07-20T01:31:09;13.58;80.62
72126;SHT31;59999;51.676;22.650;2023-07-20T01:33:36;13.54;80.82
72126;SHT31;59999;51.676;22.650;2023-07-20T01:36:03;13.51;81.16
72126;SHT31;59999;51.676;22.650;2023-07-20T01:38:29;13.45;81.50
72126;SHT31;59999;51.676;22.650;2023-07-20T01:40:56;13.41;81.62
72126;SHT31;59999;51.676;22.650;2023-07-20T01:43:23;13.32;81.84
72126;SHT31;59999;51.676;22.650;2023-07-20T01:45:48;13.29;82.14
72126;SHT31;59999;51.676;22.650;2023-07-20T01:48:14;13.24;82.47
72126;SHT31;59999;51.676;22.650;2023-07-20T01:50:40;13.12;82.48
72126;SHT31;59999;51.676;22.650;2023-07-20T01:53:06;13.06;82.79
72126;SHT31;59999;51.676;22.650;2023-07-20T01:55:32;12.99;83.23
72126;SHT31;59999;51.676;22.650;2023-07-20T01:57:58;12.91;83.55
72126;SHT31;59999;51.676;22.650;2023-07-20T02:00:25;12.93;83.85
72126;SHT31;59999;51.676;22.650;2023-07-20T02:02:51;12.90;83.94
72126;SHT31;59999;51.676;22.650;2023-07-20T02:05:17;12.94;83.84
72126;SHT31;59999;51.676;22.650;2023-07-20T02:07:43;13.00;83.88
72126;SHT31;59999;51.676;22.650;2023-07-20T02:10:09;13.01;83.82
72126;SHT31;59999;51.676;22.650;2023-07-20T02:12:35;13.06;83.95
72126;SHT31;59999;51.676;22.650;2023-07-20T02:15:05;13.10;83.92
72126;SHT31;59999;51.676;22.650;2023-07-20T02:17:31;13.14;83.91
72126;SHT31;59999;51.676;22.650;2023-07-20T02:19:57;13.18;83.97
72126;SHT31;59999;51.676;22.650;2023-07-20T02:22:25;13.15;84.70
72126;SHT31;59999;51.676;22.650;2023-07-20T02:24:51;13.12;85.19
72126;SHT31;59999;51.676;22.650;2023-07-20T02:27:17;13.11;85.12
72126;SHT31;59999;51.676;22.650;2023-07-20T02:29:43;13.10;85.09
72126;SHT31;59999;51.676;22.650;2023-07-20T02:32:09;13.11;85.09
72126;SHT31;59999;51.676;22.650;2023-07-20T02:34:36;13.15;84.96
72126;SHT31;59999;51.676;22.650;2023-07-20T02:37:02;13.18;85.40
72126;SHT31;59999;51.676;22.650;2023-07-20T02:39:28;13.21;85.54
72126;SHT31;59999;51.676;22.650;2023-07-20T02:41:54;13.20;85.26
72126;SHT31;59999;51.676;22.650;2023-07-20T02:44:20;13.22;85.05
72126;SHT31;59999;51.676;22.650;2023-07-20T02:46:46;13.25;84.85
72126;SHT31;59999;51.676;22.650;2023-07-20T02:49:12;13.34;84.81
72126;SHT31;59999;51.676;22.650;2023-07-20T02:51:38;13.37;84.54
72126;SHT31;59999;51.676;22.650;2023-07-20T02:54:04;13.37;84.56
72126;SHT31;59999;51.676;22.650;2023-07-20T02:56:30;13.42;84.58
72126;SHT31;59999;51.676;22.650;2023-07-20T02:58:56;13.45;84.64
72126;SHT31;59999;51.676;22.650;2023-07-20T03:01:23;13.55;84.62
72126;SHT31;59999;51.676;22.650;2023-07-20T03:03:48;13.59;84.63
72126;SHT31;59999;51.676;22.650;2023-07-20T03:06:16;13.65;84.40
72126;SHT31;59999;51.676;22.650;2023-07-20T03:08:42;13.70;84.66
72126;SHT31;59999;51.676;22.650;2023-07-20T03:11:14;13.73;84.49
72126;SHT31;59999;51.676;22.650;2023-07-20T03:13:41;13.75;84.11
72126;SHT31;59999;51.676;22.650;2023-07-20T03:16:13;13.72;83.52
72126;SHT31;59999;51.676;22.650;2023-07-20T03:18:41;13.72;83.73
72126;SHT31;59999;51.676;22.650;2023-07-20T03:21:08;13.72;83.82
72126;SHT31;59999;51.676;22.650;2023-07-20T03:23:34;13.78;83.75
72126;SHT31;59999;51.676;22.650;2023-07-20T03:26:00;13.80;83.10
72126;SHT31;59999;51.676;22.650;2023-07-20T03:28:26;13.83;83.08
72126;SHT31;59999;51.676;22.650;2023-07-20T03:30:54;13.89;82.42
72126;SHT31;59999;51.676;22.650;2023-07-20T03:33:22;13.89;82.23
72126;SHT31;59999;51.676;22.650;2023-07-20T03:35:48;13.95;82.54
72126;SHT31;59999;51.676;22.650;2023-07-20T03:38:14;14.02;82.45
72126;SHT31;59999;51.676;22.650;2023-07-20T03:40:58;14.12;82.19
72126;SHT31;59999;51.676;22.650;2023-07-20T03:43:26;14.23;81.28
72126;SHT31;59999;51.676;22.650;2023-07-20T03:45:53;14.31;81.21
72126;SHT31;59999;51.676;22.650;2023-07-20T03:48:21;14.41;80.92
72126;SHT31;59999;51.676;22.650;2023-07-20T03:50:49;14.47;80.77
72126;SHT31;59999;51.676;22.650;2023-07-20T03:53:15;14.52;80.53
72126;SHT31;59999;51.676;22.650;2023-07-20T03:55:46;14.60;80.09
72126;SHT31;59999;51.676;22.650;2023-07-20T03:58:12;14.61;79.70
72126;SHT31;59999;51.676;22.650;2023-07-20T04:00:39;14.71;79.73
72126;SHT31;59999;51.676;22.650;2023-07-20T04:03:06;14.76;79.82
72126;SHT31;59999;51.676;22.650;2023-07-20T04:05:32;14.81;79.86
72126;SHT31;59999;51.676;22.650;2023-07-20T04:07:58;14.82;79.10
72126;SHT31;59999;51.676;22.650;2023-07-20T04:10:24;14.85;79.31
72126;SHT31;59999;51.676;22.650;2023-07-20T04:12:50;14.85;79.28
72126;SHT31;59999;51.676;22.650;2023-07-20T04:15:16;14.86;79.54
72126;SHT31;59999;51.676;22.650;2023-07-20T04:17:41;14.89;79.84
72126;SHT31;59999;51.676;22.650;2023-07-20T04:20:08;14.89;79.73
72126;SHT31;59999;51.676;22.650;2023-07-20T04:22:34;14.86;79.81
72126;SHT31;59999;51.676;22.650;2023-07-20T04:25:01;14.89;79.82
72126;SHT31;59999;51.676;22.650;2023-07-20T04:27:27;14.91;79.79
72126;SHT31;59999;51.676;22.650;2023-07-20T04:29:53;14.92;79.47
72126;SHT31;59999;51.676;22.650;2023-07-20T04:32:18;14.93;79.02
72126;SHT31;59999;51.676;22.650;2023-07-20T04:46:47;14.98;80.28
72126;SHT31;59999;51.676;22.650;2023-07-20T04:49:13;14.99;80.72
72126;SHT31;59999;51.676;22.650;2023-07-20T04:51:39;15.05;80.76
72126;SHT31;59999;51.676;22.650;2023-07-20T04:54:05;15.09;80.65
72126;SHT31;59999;51.676;22.650;2023-07-20T04:56:31;15.12;80.76
72126;SHT31;59999;51.676;22.650;2023-07-20T04:58:57;15.02;80.62
72126;SHT31;59999;51.676;22.650;2023-07-20T05:01:23;14.95;81.32
72126;SHT31;59999;51.676;22.650;2023-07-20T05:03:49;14.92;81.88
72126;SHT31;59999;51.676;22.650;2023-07-20T05:06:15;14.91;82.12
72126;SHT31;59999;51.676;22.650;2023-07-20T05:08:41;14.91;82.38
72126;SHT31;59999;51.676;22.650;2023-07-20T05:11:07;14.86;82.05
72126;SHT31;59999;51.676;22.650;2023-07-20T05:13:33;14.82;82.94
72126;SHT31;59999;51.676;22.650;2023-07-20T05:15:59;14.75;83.31
72126;SHT31;59999;51.676;22.650;2023-07-20T05:18:25;14.75;83.90
72126;SHT31;59999;51.676;22.650;2023-07-20T05:20:51;14.72;83.69
72126;SHT31;59999;51.676;22.650;2023-07-20T05:23:18;14.69;84.04
72126;SHT31;59999;51.676;22.650;2023-07-20T05:25:46;14.71;84.32
72126;SHT31;59999;51.676;22.650;2023-07-20T05:28:11;14.72;84.26
72126;SHT31;59999;51.676;22.650;2023-07-20T05:30:37;14.64;84.91
72126;SHT31;59999;51.676;22.650;2023-07-20T05:33:03;14.63;84.95
72126;SHT31;59999;51.676;22.650;2023-07-20T05:35:29;14.57;85.41
72126;SHT31;59999;51.676;22.650;2023-07-20T05:37:55;14.55;85.37
72126;SHT31;59999;51.676;22.650;2023-07-20T05:40:21;14.45;85.38
72126;SHT31;59999;51.676;22.650;2023-07-20T05:42:48;14.42;85.43
72126;SHT31;59999;51.676;22.650;2023-07-20T05:45:17;14.35;85.59
72126;SHT31;59999;51.676;22.650;2023-07-20T05:47:44;14.28;86.04
72126;SHT31;59999;51.676;22.650;2023-07-20T05:50:10;14.26;86.68
72126;SHT31;59999;51.676;22.650;2023-07-20T05:52:36;14.23;87.25
72126;SHT31;59999;51.676;22.650;2023-07-20T05:55:05;14.21;87.59
72126;SHT31;59999;51.676;22.650;2023-07-20T05:57:31;14.18;88.11
72126;SHT31;59999;51.676;22.650;2023-07-20T05:59:57;14.18;88.23
72126;SHT31;59999;51.676;22.650;2023-07-20T06:02:22;14.20;88.34
72126;SHT31;59999;51.676;22.650;2023-07-20T06:04:48;14.21;88.36
72126;SHT31;59999;51.676;22.650;2023-07-20T06:07:15;14.17;88.52
72126;SHT31;59999;51.676;22.650;2023-07-20T06:09:41;14.17;88.68
72126;SHT31;59999;51.676;22.650;2023-07-20T06:12:07;14.17;88.95
72126;SHT31;59999;51.676;22.650;2023-07-20T06:14:34;14.16;89.18
72126;SHT31;59999;51.676;22.650;2023-07-20T06:17:00;14.16;89.43
72126;SHT31;59999;51.676;22.650;2023-07-20T06:19:26;14.13;89.24
72126;SHT31;59999;51.676;22.650;2023-07-20T06:21:52;14.09;89.51
72126;SHT31;59999;51.676;22.650;2023-07-20T06:24:18;14.05;89.57
72126;SHT31;59999;51.676;22.650;2023-07-20T06:26:44;14.02;89.60
72126;SHT31;59999;51.676;22.650;2023-07-20T06:29:10;14.03;89.44
72126;SHT31;59999;51.676;22.650;2023-07-20T06:31:36;14.00;89.31
72126;SHT31;59999;51.676;22.650;2023-07-20T06:34:03;14.00;89.34
72126;SHT31;59999;51.676;22.650;2023-07-20T06:36:29;13.99;89.45
72126;SHT31;59999;51.676;22.650;2023-07-20T06:38:55;13.99;89.51
72126;SHT31;59999;51.676;22.650;2023-07-20T06:41:21;13.97;89.42
72126;SHT31;59999;51.676;22.650;2023-07-20T06:43:49;13.96;89.68
72126;SHT31;59999;51.676;22.650;2023-07-20T06:46:16;13.90;89.75
72126;SHT31;59999;51.676;22.650;2023-07-20T06:48:42;13.85;90.01
72126;SHT31;59999;51.676;22.650;2023-07-20T06:51:08;13.82;90.44
72126;SHT31;59999;51.676;22.650;2023-07-20T06:53:34;13.79;90.57
72126;SHT31;59999;51.676;22.650;2023-07-20T06:56:00;13.79;90.75
72126;SHT31;59999;51.676;22.650;2023-07-20T06:58:26;13.78;90.72
72126;SHT31;59999;51.676;22.650;2023-07-20T07:00:51;13.76;90.85
72126;SHT31;59999;51.676;22.650;2023-07-20T07:03:17;13.73;90.78
72126;SHT31;59999;51.676;22.650;2023-07-20T07:05:44;13.76;90.82
72126;SHT31;59999;51.676;22.650;2023-07-20T07:08:11;13.78;90.97
72126;SHT31;59999;51.676;22.650;2023-07-20T07:10:38;13.76;91.05
72126;SHT31;59999;51.676;22.650;2023-07-20T07:13:04;13.79;91.20
72126;SHT31;59999;51.676;22.650;2023-07-20T07:15:30;13.82;91.32
72126;SHT31;59999;51.676;22.650;2023-07-20T07:17:56;13.85;91.32
72126;SHT31;59999;51.676;22.650;2023-07-20T07:20:22;13.87;91.41
72126;SHT31;59999;51.676;22.650;2023-07-20T07:22:50;13.90;91.44
72126;SHT31;59999;51.676;22.650;2023-07-20T07:25:16;13.93;91.55
72126;SHT31;59999;51.676;22.650;2023-07-20T07:27:42;13.96;91.48
72126;SHT31;59999;51.676;22.650;2023-07-20T07:30:08;13.93;91.37
72126;SHT31;59999;51.676;22.650;2023-07-20T07:32:34;13.96;91.45
72126;SHT31;59999;51.676;22.650;2023-07-20T07:35:00;13.96;91.67
72126;SHT31;59999;51.676;22.650;2023-07-20T07:37:26;13.99;91.86
72126;SHT31;59999;51.676;22.650;2023-07-20T07:39:52;14.03;91.81
72126;SHT31;59999;51.676;22.650;2023-07-20T07:42:18;14.05;91.90
72126;SHT31;59999;51.676;22.650;2023-07-20T07:44:44;14.09;92.01
72126;SHT31;59999;51.676;22.650;2023-07-20T07:47:10;14.10;92.07
72126;SHT31;59999;51.676;22.650;2023-07-20T07:49:36;14.14;92.08
72126;SHT31;59999;51.676;22.650;2023-07-20T07:52:03;14.20;92.20
72126;SHT31;59999;51.676;22.650;2023-07-20T07:54:29;14.24;92.30
72126;SHT31;59999;51.676;22.650;2023-07-20T07:56:55;14.33;92.44
72126;SHT31;59999;51.676;22.650;2023-07-20T07:59:21;14.38;92.29
72126;SHT31;59999;51.676;22.650;2023-07-20T08:01:47;14.45;92.26
72126;SHT31;59999;51.676;22.650;2023-07-20T08:04:13;14.49;92.15
72126;SHT31;59999;51.676;22.650;2023-07-20T08:06:39;14.52;91.86
72126;SHT31;59999;51.676;22.650;2023-07-20T08:09:05;14.54;91.77
72126;SHT31;59999;51.676;22.650;2023-07-20T08:11:31;14.58;92.14
72126;SHT31;59999;51.676;22.650;2023-07-20T08:14:00;14.61;91.71
72126;SHT31;59999;51.676;22.650;2023-07-20T08:16:26;14.63;91.97
72126;SHT31;59999;51.676;22.650;2023-07-20T08:18:52;14.65;91.76
72126;SHT31;59999;51.676;22.650;2023-07-20T08:21:18;14.67;91.91
72126;SHT31;59999;51.676;22.650;2023-07-20T08:23:44;14.71;92.16
72126;SHT31;59999;51.676;22.650;2023-07-20T08:26:10;14.76;92.24
72126;SHT31;59999;51.676;22.650;2023-07-20T08:28:36;14.78;91.97
72126;SHT31;59999;51.676;22.650;2023-07-20T08:31:02;14.82;91.70
72126;SHT31;59999;51.676;22.650;2023-07-20T08:33:28;14.92;92.03
72126;SHT31;59999;51.676;22.650;2023-07-20T08:35:55;15.00;91.79
72126;SHT31;59999;51.676;22.650;2023-07-20T08:38:22;15.09;91.52
72126;SHT31;59999;51.676;22.650;2023-07-20T08:40:48;15.16;91.17
72126;SHT31;59999;51.676;22.650;2023-07-20T08:43:14;15.27;91.09
72126;SHT31;59999;51.676;22.650;2023-07-20T08:45:45;15.36;90.68
72126;SHT31;59999;51.676;22.650;2023-07-20T08:48:12;15.44;90.54
72126;SHT31;59999;51.676;22.650;2023-07-20T08:50:38;15.57;90.36
72126;SHT31;59999;51.676;22.650;2023-07-20T08:53:04;15.68;90.95
72126;SHT31;59999;51.676;22.650;2023-07-20T08:55:31;15.78;90.22
72126;SHT31;59999;51.676;22.650;2023-07-20T08:57:59;15.87;90.05
72126;SHT31;59999;51.676;22.650;2023-07-20T09:00:25;15.98;89.30
72126;SHT31;59999;51.676;22.650;2023-07-20T09:02:55;15.99;88.13
72126;SHT31;59999;51.676;22.650;2023-07-20T09:05:23;16.09;89.29
72126;SHT31;59999;51.676;22.650;2023-07-20T09:07:51;16.15;88.84
72126;SHT31;59999;51.676;22.650;2023-07-20T09:10:21;16.19;89.02
72126;SHT31;59999;51.676;22.650;2023-07-20T09:12:47;16.20;89.10
72126;SHT31;59999;51.676;22.650;2023-07-20T09:15:14;16.18;89.12
72126;SHT31;59999;51.676;22.650;2023-07-20T09:17:46;16.16;88.68
72126;SHT31;59999;51.676;22.650;2023-07-20T09:20:14;16.18;89.00
72126;SHT31;59999;51.676;22.650;2023-07-20T09:22:40;16.19;88.49
72126;SHT31;59999;51.676;22.650;2023-07-20T09:25:08;16.20;89.05
72126;SHT31;59999;51.676;22.650;2023-07-20T09:27:39;16.16;88.04
72126;SHT31;59999;51.676;22.650;2023-07-20T09:30:06;16.06;88.42
72126;SHT31;59999;51.676;22.650;2023-07-20T09:32:44;15.99;88.37
72126;SHT31;59999;51.676;22.650;2023-07-20T09:35:18;15.94;88.85
72126;SHT31;59999;51.676;22.650;2023-07-20T09:37:54;15.84;88.76
72126;SHT31;59999;51.676;22.650;2023-07-20T09:40:21;15.80;88.01
72126;SHT31;59999;51.676;22.650;2023-07-20T09:42:47;15.78;88.81
72126;SHT31;59999;51.676;22.650;2023-07-20T09:45:13;15.77;88.75
72126;SHT31;59999;51.676;22.650;2023-07-20T09:47:39;15.78;89.23
72126;SHT31;59999;51.676;22.650;2023-07-20T09:50:07;15.75;88.96
72126;SHT31;59999;51.676;22.650;2023-07-20T09:52:40;15.80;89.10
72126;SHT31;59999;51.676;22.650;2023-07-20T09:55:10;15.82;88.35
72126;SHT31;59999;51.676;22.650;2023-07-20T09:57:40;15.87;87.97
72126;SHT31;59999;51.676;22.650;2023-07-20T10:00:07;15.88;87.30
72126;SHT31;59999;51.676;22.650;2023-07-20T10:02:41;15.95;87.65
72126;SHT31;59999;51.676;22.650;2023-07-20T10:05:09;16.02;87.59
72126;SHT31;59999;51.676;22.650;2023-07-20T10:07:48;16.18;87.82
72126;SHT31;59999;51.676;22.650;2023-07-20T10:10:16;16.26;87.09
72126;SHT31;59999;51.676;22.650;2023-07-20T10:12:43;16.30;86.89
72126;SHT31;59999;51.676;22.650;2023-07-20T10:15:19;16.33;86.83
72126;SHT31;59999;51.676;22.650;2023-07-20T10:18:09;16.39;86.84
72126;SHT31;59999;51.676;22.650;2023-07-20T10:20:40;16.45;86.24
72126;SHT31;59999;51.676;22.650;2023-07-20T10:23:07;16.46;86.63
72126;SHT31;59999;51.676;22.650;2023-07-20T10:25:33;16.46;85.87
72126;SHT31;59999;51.676;22.650;2023-07-20T10:28:05;16.50;86.28
72126;SHT31;59999;51.676;22.650;2023-07-20T10:30:34;16.43;85.60
72126;SHT31;59999;51.676;22.650;2023-07-20T10:33:04;16.38;85.89
72126;SHT31;59999;51.676;22.650;2023-07-20T10:35:30;16.34;86.05
72126;SHT31;59999;51.676;22.650;2023-07-20T10:38:03;16.33;86.47
72126;SHT31;59999;51.676;22.650;2023-07-20T10:40:38;16.30;86.10
72126;SHT31;59999;51.676;22.650;2023-07-20T10:43:09;16.33;85.68
72126;SHT31;59999;51.676;22.650;2023-07-20T10:45:52;16.34;85.49
72126;SHT31;59999;51.676;22.650;2023-07-20T10:48:21;16.42;85.30
72126;SHT31;59999;51.676;22.650;2023-07-20T10:51:12;16.47;85.27
72126;SHT31;59999;51.676;22.650;2023-07-20T10:53:40;16.63;85.81
72126;SHT31;59999;51.676;22.650;2023-07-20T10:56:12;16.78;83.58
72126;SHT31;59999;51.676;22.650;2023-07-20T10:58:40;16.95;82.40
72126;SHT31;59999;51.676;22.650;2023-07-20T11:01:08;17.14;82.84
72126;SHT31;59999;51.676;22.650;2023-07-20T11:03:37;17.29;82.81
72126;SHT31;59999;51.676;22.650;2023-07-20T11:09:12;17.55;82.82
72126;SHT31;59999;51.676;22.650;2023-07-20T11:11:46;17.49;80.94
72126;SHT31;59999;51.676;22.650;2023-07-20T11:14:25;17.52;81.76
72126;SHT31;59999;51.676;22.650;2023-07-20T11:16:52;17.61;80.98
72126;SHT31;59999;51.676;22.650;2023-07-20T11:19:25;17.66;81.55
72126;SHT31;59999;51.676;22.650;2023-07-20T11:21:54;17.83;81.29
72126;SHT31;59999;51.676;22.650;2023-07-20T11:24:20;18.00;81.11
72126;SHT31;59999;51.676;22.650;2023-07-20T11:26:49;18.17;79.36
72126;SHT31;59999;51.676;22.650;2023-07-20T11:29:19;18.21;77.85
72126;SHT31;59999;51.676;22.650;2023-07-20T11:31:46;18.20;78.15
72126;SHT31;59999;51.676;22.650;2023-07-20T11:34:19;18.18;78.00
72126;SHT31;59999;51.676;22.650;2023-07-20T11:36:50;18.05;77.50
72126;SHT31;59999;51.676;22.650;2023-07-20T11:39:18;18.04;76.74
72126;SHT31;59999;51.676;22.650;2023-07-20T11:41:48;18.04;74.42
72126;SHT31;59999;51.676;22.650;2023-07-20T11:44:22;17.89;76.32
72126;SHT31;59999;51.676;22.650;2023-07-20T11:47:08;17.80;76.84
72126;SHT31;59999;51.676;22.650;2023-07-20T11:49:40;17.74;77.53
72126;SHT31;59999;51.676;22.650;2023-07-20T11:52:10;17.77;77.94
72126;SHT31;59999;51.676;22.650;2023-07-20T11:54:40;17.83;78.23
72126;SHT31;59999;51.676;22.650;2023-07-20T11:57:07;17.83;78.16
72126;SHT31;59999;51.676;22.650;2023-07-20T11:59:33;17.91;79.12
72126;SHT31;59999;51.676;22.650;2023-07-20T12:02:03;17.96;78.46
72126;SHT31;59999;51.676;22.650;2023-07-20T12:04:30;17.96;77.87
72126;SHT31;59999;51.676;22.650;2023-07-20T12:06:58;18.05;77.56
72126;SHT31;59999;51.676;22.650;2023-07-20T12:09:24;18.10;76.97
72126;SHT31;59999;51.676;22.650;2023-07-20T12:11:50;18.21;76.39
72126;SHT31;59999;51.676;22.650;2023-07-20T12:14:16;18.44;77.09
72126;SHT31;59999;51.676;22.650;2023-07-20T12:16:43;18.68;74.85
72126;SHT31;59999;51.676;22.650;2023-07-20T12:19:12;18.88;74.35
72126;SHT31;59999;51.676;22.650;2023-07-20T12:21:41;18.98;73.55
72126;SHT31;59999;51.676;22.650;2023-07-20T12:24:08;18.92;74.07
72126;SHT31;59999;51.676;22.650;2023-07-20T12:26:36;19.10;74.52
72126;SHT31;59999;51.676;22.650;2023-07-20T12:29:02;19.31;72.51
72126;SHT31;59999;51.676;22.650;2023-07-20T12:31:36;19.51;71.34
72126;SHT31;59999;51.676;22.650;2023-07-20T12:34:02;19.72;70.68
72126;SHT31;59999;51.676;22.650;2023-07-20T12:36:28;19.98;70.35
72126;SHT31;59999;51.676;22.650;2023-07-20T12:38:54;20.15;68.68
72126;SHT31;59999;51.676;22.650;2023-07-20T12:41:20;20.27;64.73
72126;SHT31;59999;51.676;22.650;2023-07-20T12:43:46;20.37;67.77
72126;SHT31;59999;51.676;22.650;2023-07-20T12:46:12;20.44;65.07
72126;SHT31;59999;51.676;22.650;2023-07-20T12:48:39;20.30;64.67
72126;SHT31;59999;51.676;22.650;2023-07-20T12:51:10;20.06;66.38
72126;SHT31;59999;51.676;22.650;2023-07-20T12:53:37;19.99;66.75
72126;SHT31;59999;51.676;22.650;2023-07-20T12:56:04;20.08;66.20
72126;SHT31;59999;51.676;22.650;2023-07-20T12:58:30;20.19;67.03
72126;SHT31;59999;51.676;22.650;2023-07-20T13:00:56;20.25;66.57
72126;SHT31;59999;51.676;22.650;2023-07-20T13:03:22;20.15;64.48
72126;SHT31;59999;51.676;22.650;2023-07-20T13:05:48;20.16;65.73
72126;SHT31;59999;51.676;22.650;2023-07-20T13:08:15;20.09;65.63
72126;SHT31;59999;51.676;22.650;2023-07-20T13:10:41;20.22;64.83
72126;SHT31;59999;51.676;22.650;2023-07-20T13:13:07;20.34;63.97
72126;SHT31;59999;51.676;22.650;2023-07-20T13:15:41;20.36;64.96
72126;SHT31;59999;51.676;22.650;2023-07-20T13:18:08;20.30;65.53
72126;SHT31;59999;51.676;22.650;2023-07-20T13:20:34;20.43;65.58
72126;SHT31;59999;51.676;22.650;2023-07-20T13:22:59;20.41;65.43
72126;SHT31;59999;51.676;22.650;2023-07-20T13:25:25;20.09;64.81
72126;SHT31;59999;51.676;22.650;2023-07-20T13:27:51;20.02;65.91
72126;SHT31;59999;51.676;22.650;2023-07-20T13:30:17;20.29;65.49
72126;SHT31;59999;51.676;22.650;2023-07-20T13:32:44;20.57;66.02
72126;SHT31;59999;51.676;22.650;2023-07-20T13:35:13;20.64;64.23
72126;SHT31;59999;51.676;22.650;2023-07-20T13:37:39;20.60;62.83
72126;SHT31;59999;51.676;22.650;2023-07-20T13:40:05;20.80;65.06
72126;SHT31;59999;51.676;22.650;2023-07-20T13:42:34;21.02;63.24
72126;SHT31;59999;51.676;22.650;2023-07-20T13:45:00;21.04;62.70
72126;SHT31;59999;51.676;22.650;2023-07-20T13:47:27;21.04;62.26
72126;SHT31;59999;51.676;22.650;2023-07-20T13:49:54;21.02;63.32
72126;SHT31;59999;51.676;22.650;2023-07-20T13:52:20;21.14;62.92
72126;SHT31;59999;51.676;22.650;2023-07-20T13:54:46;21.32;61.67
72126;SHT31;59999;51.676;22.650;2023-07-20T13:57:12;21.49;59.81
72126;SHT31;59999;51.676;22.650;2023-07-20T13:59:38;21.66;59.78
72126;SHT31;59999;51.676;22.650;2023-07-20T14:02:03;21.89;60.78
72126;SHT31;59999;51.676;22.650;2023-07-20T14:04:30;22.07;59.46
72126;SHT31;59999;51.676;22.650;2023-07-20T14:06:55;22.39;55.70
72126;SHT31;59999;51.676;22.650;2023-07-20T14:09:21;22.53;55.21
72126;SHT31;59999;51.676;22.650;2023-07-20T14:11:47;22.87;55.48
72126;SHT31;59999;51.676;22.650;2023-07-20T14:14:13;23.23;52.86
72126;SHT31;59999;51.676;22.650;2023-07-20T14:16:39;23.82;53.50
72126;SHT31;59999;51.676;22.650;2023-07-20T14:19:05;24.09;52.13
72126;SHT31;59999;51.676;22.650;2023-07-20T14:21:32;24.41;54.38
72126;SHT31;59999;51.676;22.650;2023-07-20T14:23:59;24.68;52.83
72126;SHT31;59999;51.676;22.650;2023-07-20T14:26:24;24.89;50.86
72126;SHT31;59999;51.676;22.650;2023-07-20T14:28:50;24.98;52.83
72126;SHT31;59999;51.676;22.650;2023-07-20T14:31:16;24.60;53.28
72126;SHT31;59999;51.676;22.650;2023-07-20T14:33:42;24.09;53.34
72126;SHT31;59999;51.676;22.650;2023-07-20T14:36:08;24.34;54.47
72126;SHT31;59999;51.676;22.650;2023-07-20T14:38:35;24.78;52.96
72126;SHT31;59999;51.676;22.650;2023-07-20T14:41:02;24.96;50.37
72126;SHT31;59999;51.676;22.650;2023-07-20T14:43:28;24.98;51.02
72126;SHT31;59999;51.676;22.650;2023-07-20T14:45:54;24.84;51.45
72126;SHT31;59999;51.676;22.650;2023-07-20T14:48:20;24.60;52.40
72126;SHT31;59999;51.676;22.650;2023-07-20T14:50:46;24.29;52.64
72126;SHT31;59999;51.676;22.650;2023-07-20T14:53:13;23.89;52.89
72126;SHT31;59999;51.676;22.650;2023-07-20T14:55:39;23.55;53.75
72126;SHT31;59999;51.676;22.650;2023-07-20T14:58:06;23.34;54.48
72126;SHT31;59999;51.676;22.650;2023-07-20T15:00:31;23.08;55.94
72126;SHT31;59999;51.676;22.650;2023-07-20T15:02:57;22.70;56.65
72126;SHT31;59999;51.676;22.650;2023-07-20T15:05:23;22.32;57.87
72126;SHT31;59999;51.676;22.650;2023-07-20T15:07:50;21.98;59.34
72126;SHT31;59999;51.676;22.650;2023-07-20T15:10:16;21.79;60.29
72126;SHT31;59999;51.676;22.650;2023-07-20T15:12:43;21.59;61.40
72126;SHT31;59999;51.676;22.650;2023-07-20T15:15:13;21.41;61.56
72126;SHT31;59999;51.676;22.650;2023-07-20T15:17:42;21.22;61.78
72126;SHT31;59999;51.676;22.650;2023-07-20T15:20:10;21.08;62.51
72126;SHT31;59999;51.676;22.650;2023-07-20T15:22:36;20.98;63.06
72126;SHT31;59999;51.676;22.650;2023-07-20T15:25:05;20.85;63.86
72126;SHT31;59999;51.676;22.650;2023-07-20T15:27:32;20.74;63.43
72126;SHT31;59999;51.676;22.650;2023-07-20T15:29:58;20.64;63.96
72126;SHT31;59999;51.676;22.650;2023-07-20T15:32:25;20.58;65.07
72126;SHT31;59999;51.676;22.650;2023-07-20T15:34:50;20.51;65.75
72126;SHT31;59999;51.676;22.650;2023-07-20T15:37:16;20.44;66.13